Time;durP1;ratioP1;P1;durP2;ratioP2;P2;SDS_P1;SDS_P2;PMS_P1;PMS_P2;Temp;Humidity;BMP_temperature;BMP_pressure;BME280_temperature;BME280_humidity;BME280_pressure;Samples;Min_cycle;Max_cycle;Signal;HPM_P1;HPM_P2
2023/02/12 00:00:45;;;;;;;11.48;6.35;;;4.70;98.20;;;;;;5029739;28;20601;-67
2023/02/12 00:03:12;;;;;;;12.57;5.15;;;4.70;98.20;;;;;;5030104;28;20209;-67
2023/02/12 00:05:40;;;;;;;10.93;6.30;;;4.70;98.10;;;;;;5029589;28;20233;-68
2023/02/12 00:08:07;;;;;;;8.00;5.07;;;4.60;98.10;;;;;;5032704;28;20192;-67
2023/02/12 00:10:39;;;;;;;9.43;6.22;;;4.60;98.10;;;;;;5049733;28;20315;-66
2023/02/12 00:13:06;;;;;;;6.65;5.95;;;4.60;98.10;;;;;;5049307;28;20208;-67
2023/02/12 00:15:33;;;;;;;8.68;5.05;;;4.60;98.20;;;;;;5048943;28;20227;-68
2023/02/12 00:18:00;;;;;;;8.07;6.57;;;4.60;98.30;;;;;;5049441;28;20568;-67
2023/02/12 00:20:27;;;;;;;9.90;5.57;;;4.60;98.30;;;;;;5040529;28;20602;-66
2023/02/12 00:22:53;;;;;;;5.70;5.30;;;4.60;98.30;;;;;;5029593;28;20207;-67
2023/02/12 00:25:20;;;;;;;11.32;6.53;;;4.60;98.20;;;;;;5029273;28;20307;-67
2023/02/12 00:27:48;;;;;;;10.05;8.05;;;4.60;98.40;;;;;;5029487;28;20244;-67
2023/02/12 00:30:16;;;;;;;5.90;5.30;;;4.60;98.50;;;;;;5028358;28;20212;-67
2023/02/12 00:32:42;;;;;;;4.78;4.30;;;4.50;98.40;;;;;;5029306;28;20203;-67
2023/02/12 00:35:09;;;;;;;4.85;4.30;;;4.60;99.90;;;;;;5029331;28;20296;-68
2023/02/12 00:37:36;;;;;;;13.88;6.72;;;4.50;98.40;;;;;;5053317;28;20202;-67
2023/02/12 00:40:03;;;;;;;10.98;7.53;;;4.50;98.50;;;;;;5058908;28;20245;-67
2023/02/12 00:42:30;;;;;;;13.30;7.15;;;4.50;98.60;;;;;;5048273;28;20206;-68
2023/02/12 00:44:58;;;;;;;6.07;4.50;;;4.40;98.70;;;;;;5049401;28;20226;-67
2023/02/12 00:47:25;;;;;;;7.45;4.50;;;4.40;98.90;;;;;;5048347;28;20223;-68
2023/02/12 00:49:51;;;;;;;10.13;4.65;;;4.40;98.90;;;;;;5048441;28;20196;-67
2023/02/12 00:52:18;;;;;;;13.45;8.00;;;4.40;98.80;;;;;;5048567;28;20242;-67
2023/02/12 00:54:45;;;;;;;10.45;7.65;;;4.40;98.90;;;;;;5049168;28;20203;-67
2023/02/12 00:57:12;;;;;;;7.38;6.65;;;4.40;98.80;;;;;;5049096;28;20589;-67
2023/02/12 00:59:39;;;;;;;6.93;4.45;;;4.40;98.90;;;;;;5030808;28;20224;-67
2023/02/12 01:02:07;;;;;;;7.38;4.30;;;5.90;99.60;;;;;;5028455;28;20220;-67
2023/02/12 01:04:34;;;;;;;6.20;5.35;;;4.40;99.00;;;;;;5029147;28;20216;-67
2023/02/12 01:07:00;;;;;;;8.10;6.40;;;4.40;98.80;;;;;;5028902;28;20233;-67
2023/02/12 01:09:27;;;;;;;7.20;6.20;;;4.40;98.90;;;;;;5044468;28;20227;-68
2023/02/12 01:11:54;;;;;;;8.32;7.00;;;4.40;99.00;;;;;;5048803;28;20232;-67
2023/02/12 01:14:21;;;;;;;8.48;7.68;;;4.40;98.90;;;;;;5048474;28;20200;-67
2023/02/12 01:16:47;;;;;;;5.75;4.28;;;4.40;99.00;;;;;;5048721;28;20230;-67
2023/02/12 01:19:15;;;;;;;5.53;4.95;;;4.40;98.90;;;;;;5032061;28;20207;-66
2023/02/12 01:21:42;;;;;;;7.20;6.63;;;4.40;99.10;;;;;;5028770;28;20240;-67
2023/02/12 01:24:09;;;;;;;15.77;10.05;;;4.40;99.10;;;;;;5028408;28;20207;-67
2023/02/12 01:26:36;;;;;;;11.65;7.90;;;4.40;99.20;;;;;;5028491;28;20231;-67
2023/02/12 01:29:06;;;;;;;9.15;7.05;;;4.50;99.90;;;;;;5040664;28;20202;-67
2023/02/12 01:31:36;;;;;;;7.35;5.38;;;4.40;99.20;;;;;;5048553;28;20243;-67
2023/02/12 01:34:03;;;;;;;6.90;6.22;;;4.40;99.10;;;;;;5048354;28;20208;-67
2023/02/12 01:36:32;;;;;;;13.93;6.10;;;4.40;99.30;;;;;;5047943;28;20230;-68
2023/02/12 01:39:01;;;;;;;9.05;5.22;;;4.40;99.20;;;;;;5063633;28;20219;-67
2023/02/12 01:41:30;;;;;;;11.93;9.63;;;4.60;99.90;;;;;;5044872;28;20649;-68
2023/02/12 01:44:08;;;;;;;9.93;6.40;;;4.30;99.20;;;;;;5048305;28;20614;-67
2023/02/12 01:46:35;;;;;;;7.97;6.03;;;4.40;99.00;;;;;;5048263;28;20234;-67
2023/02/12 01:49:04;;;;;;;8.77;4.85;;;4.30;99.20;;;;;;5032491;28;20211;-67
2023/02/12 01:51:34;;;;;;;9.32;5.78;;;4.40;99.30;;;;;;5026420;28;20232;-67
2023/02/12 01:54:04;;;;;;;12.75;6.00;;;4.40;99.10;;;;;;5027530;28;20208;-68
2023/02/12 01:56:32;;;;;;;11.23;4.95;;;4.40;99.10;;;;;;5027839;28;20228;-67
2023/02/12 01:58:59;;;;;;;6.03;5.15;;;;;;;;;;5028018;28;20205;-67
2023/02/12 02:01:28;;;;;;;5.32;3.65;;;4.40;98.80;;;;;;5027962;28;20243;-67
2023/02/12 02:03:59;;;;;;;13.15;7.10;;;4.30;99.60;;;;;;5027358;28;20671;-67
2023/02/12 02:06:31;;;;;;;6.07;4.50;;;4.40;99.40;;;;;;5026193;28;20240;-67
2023/02/12 02:08:59;;;;;;;9.57;5.63;;;4.40;99.80;;;;;;5037113;28;20680;-67
2023/02/12 02:17:08;;;;;;;6.63;4.60;;;4.60;99.90;;;;;;5047291;28;20273;-67
2023/02/12 02:20:01;;;;;;;8.48;5.57;;;4.40;99.50;;;;;;5030098;28;20201;-67
2023/02/12 02:22:34;;;;;;;5.75;3.90;;;4.50;99.60;;;;;;5026104;28;20248;-67
2023/02/12 02:25:43;;;;;;;6.50;5.82;;;4.50;99.40;;;;;;5027618;28;20288;-67
2023/02/12 02:28:35;;;;;;;6.00;5.05;;;4.40;99.40;;;;;;5031306;28;20207;-67
2023/02/12 02:31:07;;;;;;;8.50;5.72;;;4.40;99.40;;;;;;5047500;28;20235;-67
2023/02/12 02:33:39;;;;;;;6.05;4.85;;;4.40;99.40;;;;;;5047484;28;20200;-67
2023/02/12 02:36:20;;;;;;;6.72;5.88;;;4.40;99.50;;;;;;5047062;28;20219;-67
2023/02/12 02:38:54;;;;;;;5.28;4.80;;;4.40;99.40;;;;;;5055886;28;20234;-67
2023/02/12 02:41:29;;;;;;;6.53;5.22;;;4.40;99.50;;;;;;5047686;28;20665;-67
2023/02/12 02:43:57;;;;;;;8.27;4.60;;;4.20;99.90;;;;;;5051225;28;20560;-68
2023/02/12 02:46:33;;;;;;;10.55;6.97;;;4.30;99.60;;;;;;5051445;28;20625;-67
2023/02/12 02:49:04;;;;;;;5.18;4.00;;;4.40;99.70;;;;;;5033996;28;20311;-67
2023/02/12 02:51:35;;;;;;;9.32;4.32;;;4.40;99.70;;;;;;5031443;28;20216;-67
2023/02/12 02:54:09;;;;;;;11.45;7.18;;;4.30;99.70;;;;;;5031416;28;20675;-67
2023/02/12 02:56:41;;;;;;;14.35;6.40;;;4.00;99.90;;;;;;5030650;28;20636;-67
2023/02/12 02:59:12;;;;;;;5.70;4.35;;;4.30;99.60;;;;;;5032830;28;20197;-67
2023/02/12 03:01:45;;;;;;;7.25;5.75;;;4.00;99.90;;;;;;5031136;28;20268;-67
2023/02/12 03:04:18;;;;;;;11.57;5.03;;;4.30;99.90;;;;;;5031148;28;20193;-67
2023/02/12 03:06:51;;;;;;;7.35;6.43;;;4.30;99.80;;;;;;5031022;28;20224;-67
2023/02/12 03:09:22;;;;;;;7.25;6.32;;;4.30;99.90;;;;;;5043973;28;20654;-67
2023/02/12 03:11:50;;;;;;;4.85;3.58;;;4.20;99.90;;;;;;5050774;28;20220;-67
2023/02/12 03:14:21;;;;;;;8.05;6.57;;;4.30;99.90;;;;;;5050746;28;20223;-67
2023/02/12 03:16:57;;;;;;;9.95;7.15;;;4.20;99.90;;;;;;5050767;28;20224;-67
2023/02/12 03:19:29;;;;;;;4.85;4.38;;;4.30;99.90;;;;;;5034518;28;20196;-67
2023/02/12 03:22:02;;;;;;;7.63;6.82;;;4.30;99.90;;;;;;5030864;28;20232;-67
2023/02/12 03:24:35;;;;;;;7.30;4.00;;;4.30;99.90;;;;;;5030965;28;20197;-67
2023/02/12 03:27:08;;;;;;;6.88;5.72;;;4.20;99.90;;;;;;5034900;28;20226;-67
2023/02/12 03:29:36;;;;;;;11.32;5.95;;;4.30;99.90;;;;;;5050186;28;20654;-67
2023/02/12 03:32:24;;;;;;;8.13;4.55;;;4.30;99.90;;;;;;5049917;28;20295;-67
2023/02/12 03:34:55;;;;;;;7.18;4.53;;;4.30;99.90;;;;;;5050702;28;20295;-67
2023/02/12 03:37:28;;;;;;;10.20;5.88;;;4.30;99.90;;;;;;5051489;28;20586;-67
2023/02/12 03:40:05;;;;;;;13.13;5.35;;;4.30;99.90;;;;;;5060918;28;20203;-67
2023/02/12 03:42:38;;;;;;;11.02;6.65;;;4.40;99.90;;;;;;5049655;28;20587;-67
2023/02/12 03:45:14;;;;;;;7.30;4.85;;;4.30;99.90;;;;;;5048435;28;20285;-67
2023/02/12 03:47:49;;;;;;;10.93;6.03;;;4.30;99.90;;;;;;5034960;28;20204;-67
2023/02/12 03:50:21;;;;;;;8.75;6.00;;;4.30;99.90;;;;;;5029836;28;20208;-67
2023/02/12 03:52:50;;;;;;;13.85;6.85;;;4.30;99.90;;;;;;5029684;28;20571;-68
2023/02/12 03:55:18;;;;;;;16.85;6.35;;;4.30;99.90;;;;;;5030032;28;20209;-67
2023/02/12 03:57:51;;;;;;;8.35;5.57;;;4.10;99.90;;;;;;5032211;28;20243;-69
2023/02/12 04:00:23;;;;;;;5.90;4.40;;;4.20;99.90;;;;;;5049432;28;20210;-67
2023/02/12 04:02:52;;;;;;;13.52;4.47;;;4.30;99.90;;;;;;5050622;28;20204;-67
2023/02/12 04:05:22;;;;;;;8.02;6.70;;;4.40;99.90;;;;;;5049591;28;20203;-68
2023/02/12 04:07:51;;;;;;;6.85;6.25;;;3.80;99.90;;;;;;5047021;28;20721;-67
2023/02/12 04:10:19;;;;;;;7.45;5.68;;;4.30;99.90;;;;;;5029099;28;20295;-67
2023/02/12 04:12:53;;;;;;;13.77;7.57;;;4.30;99.90;;;;;;5029683;28;20308;-67
2023/02/12 04:15:43;;;;;;;5.85;4.63;;;4.50;99.90;;;;;;5029508;28;20275;-67
2023/02/12 04:18:19;;;;;;;9.25;4.38;;;4.40;99.90;;;;;;5034471;28;20265;-67
2023/02/12 04:20:54;;;;;;;9.25;3.97;;;4.40;99.90;;;;;;5049607;28;20234;-67
2023/02/12 04:23:46;;;;;;;6.85;6.15;;;4.40;99.90;;;;;;5049987;28;20261;-67
2023/02/12 04:26:22;;;;;;;5.47;4.45;;;4.40;99.90;;;;;;5048542;28;20289;-68
2023/02/12 04:28:57;;;;;;;6.32;5.35;;;4.40;99.90;;;;;;5029260;28;20210;-67
2023/02/12 04:31:30;;;;;;;5.13;4.22;;;4.40;99.90;;;;;;5029610;28;20227;-67
2023/02/12 04:34:07;;;;;;;9.65;6.35;;;4.40;99.90;;;;;;5030008;28;20201;-67
2023/02/12 04:36:36;;;;;;;11.05;6.55;;;4.20;99.90;;;;;;5028760;28;20621;-68
2023/02/12 04:39:07;;;;;;;5.65;5.10;;;4.40;99.90;;;;;;5063327;28;20203;-67
2023/02/12 04:41:34;;;;;;;6.72;6.05;;;4.40;99.90;;;;;;5043288;28;20263;-67
2023/02/12 04:44:14;;;;;;;5.35;4.53;;;4.40;99.90;;;;;;5029414;28;20196;-67
2023/02/12 04:46:41;;;;;;;7.75;5.95;;;4.40;99.90;;;;;;5029359;28;20231;-67
2023/02/12 04:49:13;;;;;;;8.13;5.25;;;4.50;99.90;;;;;;5035874;28;20200;-67
2023/02/12 04:51:40;;;;;;;6.32;3.88;;;4.30;99.90;;;;;;5048943;28;20227;-67
2023/02/12 04:54:07;;;;;;;4.47;4.10;;;4.30;99.90;;;;;;5049495;28;20200;-67
2023/02/12 04:56:34;;;;;;;8.32;4.70;;;4.30;99.90;;;;;;5049084;28;20502;-67
2023/02/12 04:59:01;;;;;;;6.35;5.75;;;4.40;99.90;;;;;;5047994;28;20195;-66
2023/02/12 05:01:27;;;;;;;5.53;4.40;;;4.30;99.90;;;;;;5039516;28;20334;-69
2023/02/12 05:03:54;;;;;;;9.63;5.85;;;4.40;99.90;;;;;;5028670;28;20210;-67
2023/02/12 05:06:22;;;;;;;5.75;5.25;;;4.40;99.90;;;;;;5029125;28;20243;-67
2023/02/12 05:08:49;;;;;;;11.50;6.65;;;4.40;99.90;;;;;;5028344;28;20215;-67
2023/02/12 05:11:16;;;;;;;7.40;4.80;;;4.30;99.90;;;;;;5028922;28;20233;-67
2023/02/12 05:13:42;;;;;;;5.88;3.55;;;4.30;99.90;;;;;;5036883;28;20200;-67
2023/02/12 05:16:09;;;;;;;9.32;4.53;;;4.40;99.90;;;;;;5048448;28;20234;-68
2023/02/12 05:18:36;;;;;;;6.95;4.68;;;4.40;99.90;;;;;;5048136;28;20207;-67
2023/02/12 05:21:04;;;;;;;14.40;6.43;;;4.40;99.90;;;;;;5048533;28;20242;-67
2023/02/12 05:23:34;;;;;;;12.80;6.10;;;4.30;99.90;;;;;;5048509;28;20540;-67
2023/02/12 05:26:02;;;;;;;9.30;5.40;;;4.30;99.90;;;;;;5038359;28;20224;-67
2023/02/12 05:28:30;;;;;;;8.85;5.60;;;4.30;99.90;;;;;;5027664;28;20205;-68
2023/02/12 05:30:59;;;;;;;9.85;5.35;;;4.40;99.90;;;;;;5027490;28;20227;-67
2023/02/12 05:33:26;;;;;;;6.78;4.10;;;4.40;99.90;;;;;;5028775;28;20193;-67
2023/02/12 05:35:54;;;;;;;5.82;4.85;;;4.40;99.90;;;;;;5028200;28;20238;-67
2023/02/12 05:38:21;;;;;;;7.53;5.20;;;4.30;99.90;;;;;;5045987;28;20761;-67
2023/02/12 05:40:49;;;;;;;7.55;5.78;;;4.30;99.90;;;;;;5063549;28;20230;-67
2023/02/12 05:43:16;;;;;;;5.82;5.30;;;4.20;99.90;;;;;;5056657;28;20207;-68
2023/02/12 05:45:43;;;;;;;13.05;5.15;;;4.20;99.90;;;;;;5048196;28;20599;-67
2023/02/12 05:48:10;;;;;;;6.72;6.13;;;4.30;99.90;;;;;;5042083;28;20197;-67
2023/02/12 05:50:37;;;;;;;5.53;5.03;;;4.30;99.90;;;;;;5028122;28;20457;-67
2023/02/12 05:53:04;;;;;;;5.78;4.65;;;4.30;99.90;;;;;;5028042;28;20210;-67
2023/02/12 05:55:31;;;;;;;11.88;5.80;;;4.30;99.90;;;;;;5028031;28;20232;-67
2023/02/12 05:57:59;;;;;;;8.68;5.35;;;4.20;99.90;;;;;;5029187;28;20229;-68
2023/02/12 06:00:26;;;;;;;10.52;7.22;;;4.30;99.90;;;;;;5047563;28;20220;-67
2023/02/12 06:02:52;;;;;;;6.38;4.60;;;4.30;99.90;;;;;;5047826;28;20250;-67
2023/02/12 06:05:19;;;;;;;7.93;5.38;;;;;;;;;;5048081;28;20662;-67
2023/02/12 06:07:46;;;;;;;12.27;4.38;;;4.40;99.90;;;;;;5048152;28;20353;-67
2023/02/12 06:10:13;;;;;;;8.48;5.22;;;4.40;99.90;;;;;;5042803;28;20201;-68
2023/02/12 06:12:40;;;;;;;9.65;6.03;;;4.10;99.90;;;;;;5033567;28;20188;-67
2023/02/12 06:15:09;;;;;;;16.25;9.23;;;4.20;99.90;;;;;;5046849;28;20203;-67
2023/02/12 06:17:36;;;;;;;6.82;4.88;;;4.20;99.90;;;;;;5044614;28;20253;-68
2023/02/12 06:20:03;;;;;;;5.90;3.90;;;4.20;99.90;;;;;;5027569;28;20207;-67
2023/02/12 06:22:30;;;;;;;5.30;4.85;;;4.20;99.90;;;;;;5027571;28;20224;-67
2023/02/12 06:24:57;;;;;;;9.07;5.35;;;4.10;99.90;;;;;;5027014;28;20209;-66
2023/02/12 06:27:24;;;;;;;7.97;3.83;;;4.20;99.90;;;;;;5026823;28;20593;-67
2023/02/12 06:29:51;;;;;;;6.15;4.80;;;4.20;99.90;;;;;;5027568;28;20294;-67
2023/02/12 06:32:19;;;;;;;11.50;6.53;;;4.20;99.90;;;;;;5027640;28;20235;-67
2023/02/12 06:34:45;;;;;;;5.13;4.60;;;4.10;99.90;;;;;;5027738;28;20208;-67
2023/02/12 06:37:12;;;;;;;10.20;5.55;;;4.20;99.90;;;;;;5032586;28;20670;-67
2023/02/12 06:39:39;;;;;;;7.10;5.50;;;4.00;99.90;;;;;;5057009;28;20206;-67
2023/02/12 06:42:06;;;;;;;7.75;6.40;;;5.20;99.90;;;;;;5045828;28;20241;-67
2023/02/12 06:44:32;;;;;;;14.27;6.10;;;4.10;99.90;;;;;;5027119;28;20640;-67
2023/02/12 06:46:59;;;;;;;5.68;4.53;;;4.10;99.90;;;;;;5027304;28;20240;-67
2023/02/12 06:49:27;;;;;;;7.78;6.43;;;4.10;99.90;;;;;;5043047;28;20548;-67
2023/02/12 06:51:54;;;;;;;10.05;5.55;;;4.10;99.90;;;;;;5047030;28;20322;-68
2023/02/12 06:54:21;;;;;;;6.80;3.63;;;4.10;99.90;;;;;;5047599;28;20211;-67
2023/02/12 06:56:48;;;;;;;10.18;6.18;;;4.10;99.90;;;;;;5046949;28;20629;-67
2023/02/12 06:59:16;;;;;;;6.25;5.50;;;4.10;99.90;;;;;;5030112;28;20216;-68
2023/02/12 07:01:43;;;;;;;5.60;3.63;;;4.20;99.90;;;;;;5027106;28;20235;-67
2023/02/12 07:04:11;;;;;;;5.45;4.97;;;4.20;99.90;;;;;;5027376;28;20214;-67
2023/02/12 07:06:39;;;;;;;13.35;5.72;;;4.20;99.90;;;;;;5026722;28;20216;-67
2023/02/12 07:09:06;;;;;;;9.43;4.75;;;4.30;99.90;;;;;;5039825;28;20659;-67
2023/02/12 07:11:36;;;;;;;5.60;4.90;;;4.30;99.90;;;;;;5047206;28;20254;-67
2023/02/12 07:14:03;;;;;;;5.78;5.10;;;4.30;99.90;;;;;;5046961;28;20286;-68
2023/02/12 07:16:30;;;;;;;11.25;7.60;;;4.30;99.90;;;;;;5046581;28;20736;-67
2023/02/12 07:18:57;;;;;;;7.32;4.75;;;4.30;99.90;;;;;;5029605;28;20571;-67
2023/02/12 07:21:24;;;;;;;6.57;5.93;;;4.40;99.90;;;;;;5026903;28;20217;-67
2023/02/12 07:23:54;;;;;;;10.18;3.28;;;4.40;99.90;;;;;;5029128;28;20675;-67
2023/02/12 07:26:21;;;;;;;6.32;5.75;;;4.40;99.90;;;;;;5030666;28;20733;-67
2023/02/12 07:28:49;;;;;;;6.53;5.72;;;4.40;99.90;;;;;;5032380;28;20196;-67
2023/02/12 07:31:17;;;;;;;5.85;4.43;;;4.40;99.90;;;;;;5034418;28;20219;-67
2023/02/12 07:33:45;;;;;;;8.45;7.75;;;4.50;99.90;;;;;;5050231;28;20208;-67
2023/02/12 07:36:13;;;;;;;6.50;5.90;;;4.50;99.90;;;;;;5049642;28;20435;-67
2023/02/12 07:38:40;;;;;;;6.95;5.40;;;4.50;99.90;;;;;;5054844;28;20230;-67
2023/02/12 07:41:10;;;;;;;6.03;5.40;;;4.50;99.90;;;;;;5068719;28;20227;-67
2023/02/12 07:43:38;;;;;;;7.05;5.32;;;4.60;99.90;;;;;;5070325;28;20246;-67
2023/02/12 07:46:12;;;;;;;17.73;6.72;;;4.60;99.90;;;;;;5069419;28;20234;-67
2023/02/12 07:48:39;;;;;;;11.02;8.50;;;4.60;99.90;;;;;;5057252;28;20205;-67
2023/02/12 07:51:08;;;;;;;10.88;5.45;;;4.60;99.90;;;;;;5050310;28;20232;-67
2023/02/12 07:53:35;;;;;;;9.90;6.95;;;4.70;99.90;;;;;;5050095;28;20212;-67
2023/02/12 07:56:06;;;;;;;6.45;4.80;;;4.60;99.90;;;;;;5049456;28;20238;-67
2023/02/12 07:58:34;;;;;;;7.13;6.63;;;4.70;99.90;;;;;;5048389;28;20211;-67
2023/02/12 08:01:11;;;;;;;6.38;4.93;;;4.70;99.90;;;;;;5049847;28;20234;-67
2023/02/12 08:03:37;;;;;;;7.60;6.85;;;4.70;99.90;;;;;;5050153;28;20239;-67
2023/02/12 08:06:08;;;;;;;10.27;8.45;;;4.70;99.90;;;;;;5050345;28;20235;-67
2023/02/12 08:08:37;;;;;;;11.10;6.00;;;4.70;99.90;;;;;;5049036;28;20666;-67
2023/02/12 08:11:04;;;;;;;12.27;6.30;;;4.70;99.90;;;;;;5038337;28;20229;-67
2023/02/12 08:13:31;;;;;;;7.78;6.05;;;4.80;99.90;;;;;;5029923;28;20196;-67
2023/02/12 08:16:02;;;;;;;7.80;7.07;;;4.80;99.90;;;;;;5029480;28;20224;-67
2023/02/12 08:18:30;;;;;;;7.90;6.57;;;4.80;99.90;;;;;;5039201;28;20192;-67
2023/02/12 08:21:02;;;;;;;10.90;5.90;;;4.90;99.50;;;;;;5049695;28;20224;-67
2023/02/12 08:23:29;;;;;;;12.18;6.28;;;4.90;99.70;;;;;;5049627;28;20713;-68
2023/02/12 08:26:05;;;;;;;13.68;7.13;;;5.00;99.50;;;;;;5049091;28;20342;-67
2023/02/12 08:28:32;;;;;;;8.93;7.53;;;5.00;99.50;;;;;;5029280;28;20691;-67
2023/02/12 08:31:01;;;;;;;8.65;7.20;;;5.00;99.90;;;;;;5029456;28;20579;-67
2023/02/12 08:33:28;;;;;;;14.88;7.97;;;5.00;99.50;;;;;;5029482;28;20567;-69
2023/02/12 08:36:01;;;;;;;6.88;6.10;;;5.00;99.40;;;;;;5027561;28;20224;-67
2023/02/12 08:38:28;;;;;;;11.85;7.78;;;5.00;99.40;;;;;;5055588;28;20222;-68
2023/02/12 08:40:55;;;;;;;8.52;6.32;;;5.10;99.40;;;;;;5052291;28;20220;-67
2023/02/12 08:43:22;;;;;;;7.55;5.78;;;5.10;99.40;;;;;;5049372;28;20232;-67
2023/02/12 08:45:48;;;;;;;7.97;6.00;;;5.10;99.40;;;;;;5049120;28;20232;-67
2023/02/12 08:48:19;;;;;;;8.40;6.05;;;5.80;99.90;;;;;;5047460;28;20202;-67
2023/02/12 08:50:46;;;;;;;9.02;7.78;;;5.20;99.60;;;;;;5048581;28;20231;-67
2023/02/12 08:53:13;;;;;;;27.90;9.77;;;;;;;;;;5048940;28;20196;-67
2023/02/12 08:55:40;;;;;;;14.73;10.90;;;5.30;99.30;;;;;;5049248;28;20622;-67
2023/02/12 08:58:06;;;;;;;12.63;6.50;;;5.40;99.60;;;;;;5048616;28;20210;-67
2023/02/12 09:00:33;;;;;;;8.15;5.80;;;5.50;99.70;;;;;;5032810;28;20225;-67
2023/02/12 09:03:00;;;;;;;9.63;6.60;;;5.50;99.50;;;;;;5028553;28;20239;-67
2023/02/12 09:05:28;;;;;;;9.70;7.47;;;5.30;99.90;;;;;;5028527;28;20224;-67
2023/02/12 09:07:55;;;;;;;15.15;7.90;;;5.60;99.50;;;;;;5029342;28;20204;-67
2023/02/12 09:10:21;;;;;;;7.70;6.32;;;5.70;99.90;;;;;;5028216;28;20197;-67
2023/02/12 09:12:48;;;;;;;43.83;8.90;;;5.70;99.50;;;;;;5047146;28;20208;-67
2023/02/12 09:15:15;;;;;;;14.30;8.45;;;5.70;99.50;;;;;;5048432;28;20208;-67
2023/02/12 09:17:42;;;;;;;12.80;8.38;;;5.90;99.90;;;;;;5048798;28;20211;-67
2023/02/12 09:20:10;;;;;;;10.60;6.82;;;5.80;99.90;;;;;;5047489;28;20642;-68
2023/02/12 09:22:38;;;;;;;6.97;5.72;;;5.90;99.80;;;;;;5047451;28;20228;-69
2023/02/12 09:25:06;;;;;;;15.20;7.78;;;5.90;99.80;;;;;;5028694;28;20205;-67
2023/02/12 09:27:32;;;;;;;15.65;8.50;;;6.00;99.90;;;;;;5028700;28;20212;-67
2023/02/12 09:29:59;;;;;;;11.50;7.45;;;6.00;99.90;;;;;;5028465;28;20200;-67
2023/02/12 09:32:26;;;;;;;6.07;4.85;;;5.70;99.90;;;;;;5028311;28;20240;-67
2023/02/12 09:34:53;;;;;;;12.52;8.30;;;6.10;99.90;;;;;;5028512;28;20208;-67
2023/02/12 09:37:19;;;;;;;7.90;4.30;;;6.20;99.90;;;;;;5034537;28;20223;-67
2023/02/12 09:39:48;;;;;;;8.35;4.40;;;6.20;99.90;;;;;;5060358;28;20199;-67
2023/02/12 09:42:31;;;;;;;5.70;4.07;;;6.30;99.90;;;;;;5047914;28;20722;-67
2023/02/12 09:45:06;;;;;;;4.38;2.78;;;6.30;99.90;;;;;;5047493;28;20236;-67
2023/02/12 09:47:39;;;;;;;3.10;2.58;;;6.40;99.90;;;;;;5047995;28;20199;-67
2023/02/12 09:50:22;;;;;;;2.50;2.30;;;6.50;99.90;;;;;;5047540;28;20568;-68
2023/02/12 09:52:50;;;;;;;3.08;2.78;;;6.40;99.90;;;;;;5047888;28;20199;-67
2023/02/12 09:55:19;;;;;;;5.50;3.28;;;6.50;99.90;;;;;;5044418;28;20205;-67
2023/02/12 09:57:46;;;;;;;2.83;2.63;;;6.60;99.90;;;;;;5028063;28;20219;-67
2023/02/12 10:00:18;;;;;;;7.20;3.47;;;6.60;99.90;;;;;;5027407;28;20817;-67
2023/02/12 10:02:45;;;;;;;1.70;1.45;;;;;;;;;;5028030;28;20711;-67
2023/02/12 10:05:17;;;;;;;2.72;2.50;;;6.70;99.50;;;;;;5027764;28;20204;-67
2023/02/12 10:08:08;;;;;;;3.00;2.38;;;6.70;99.60;;;;;;5031221;28;20192;-68
2023/02/12 10:10:48;;;;;;;6.82;1.92;;;6.80;99.50;;;;;;5041335;28;20235;-67
2023/02/12 10:13:27;;;;;;;5.78;3.90;;;6.80;99.30;;;;;;5041404;28;20207;-67
2023/02/12 10:15:58;;;;;;;6.28;3.55;;;6.70;99.40;;;;;;5027754;28;20247;-67
2023/02/12 10:18:48;;;;;;;4.40;2.35;;;6.70;99.90;;;;;;5036310;28;20682;-67
2023/02/12 10:21:31;;;;;;;1.15;0.88;;;6.80;99.30;;;;;;5047797;28;20235;-67
2023/02/12 10:24:20;;;;;;;1.55;1.40;;;7.60;99.90;;;;;;5047754;28;20275;-67
2023/02/12 10:26:50;;;;;;;2.17;1.73;;;7.00;99.20;;;;;;5038322;28;20243;-67
2023/02/12 10:29:20;;;;;;;3.92;3.00;;;6.30;99.90;;;;;;5030611;28;20193;-67
2023/02/12 10:31:52;;;;;;;8.75;3.75;;;7.00;99.10;;;;;;5027336;28;20225;-67
2023/02/12 10:34:22;;;;;;;2.57;2.37;;;7.00;98.90;;;;;;5027740;28;20666;-67
2023/02/12 10:36:51;;;;;;;2.80;2.60;;;7.10;98.70;;;;;;5026192;28;20713;-67
2023/02/12 10:39:22;;;;;;;7.77;3.50;;;7.00;99.00;;;;;;5063181;28;21375;-67
2023/02/12 10:41:58;;;;;;;3.23;2.77;;;7.00;99.20;;;;;;5046258;28;20652;-67
2023/02/12 10:44:25;;;;;;;3.58;2.28;;;7.10;99.30;;;;;;5044501;28;20861;-67
2023/02/12 10:46:51;;;;;;;7.20;3.43;;;7.10;99.10;;;;;;5047006;28;20606;-67
2023/02/12 10:49:20;;;;;;;6.10;4.47;;;7.10;99.00;;;;;;5041501;28;20726;-67
2023/02/12 10:52:12;;;;;;;5.07;3.40;;;7.10;99.90;;;;;;5047016;28;20651;-67
2023/02/12 10:54:42;;;;;;;3.37;3.07;;;7.10;99.20;;;;;;5047558;28;21216;-67
2023/02/12 10:57:17;;;;;;;4.47;2.50;;;7.10;99.30;;;;;;5047336;28;20758;-68
2023/02/12 10:59:46;;;;;;;2.00;1.90;;;7.30;99.30;;;;;;5030532;28;20630;-67
2023/02/12 11:02:24;;;;;;;4.27;3.10;;;7.30;99.90;;;;;;5031148;28;20666;-68
2023/02/12 11:04:52;;;;;;;3.23;2.87;;;7.50;99.90;;;;;;5031342;28;21155;-67
2023/02/12 11:07:20;;;;;;;2.03;1.90;;;7.40;99.90;;;;;;5030971;28;20654;-69
2023/02/12 11:09:49;;;;;;;2.20;1.47;;;7.20;99.90;;;;;;5050337;28;20990;-67
2023/02/12 11:12:35;;;;;;;1.30;1.20;;;7.30;99.90;;;;;;5051044;28;20653;-67
2023/02/12 11:15:07;;;;;;;2.00;1.33;;;7.90;99.30;;;;;;5050931;28;21085;-67
2023/02/12 11:17:37;;;;;;;3.90;2.43;;;7.70;99.90;;;;;;5043349;28;20673;-68
2023/02/12 11:20:20;;;;;;;1.90;1.63;;;7.60;98.90;;;;;;5049973;28;20616;-67
2023/02/12 11:22:52;;;;;;;1.60;1.47;;;7.10;99.90;;;;;;5050741;28;20625;-67
2023/02/12 11:25:19;;;;;;;3.70;2.50;;;7.10;99.90;;;;;;5050626;28;21228;-67
2023/02/12 11:28:04;;;;;;;1.63;1.53;;;7.60;99.90;;;;;;5049184;28;20633;-67
2023/02/12 11:30:31;;;;;;;2.40;2.20;;;;;;;;;;5030097;28;20994;-68
2023/02/12 11:33:21;;;;;;;2.93;1.67;;;7.60;98.30;;;;;;5030806;28;20985;-68
2023/02/12 11:35:54;;;;;;;2.53;2.10;;;7.10;99.90;;;;;;5029200;28;20661;-67
2023/02/12 11:38:28;;;;;;;1.90;1.80;;;7.80;99.90;;;;;;5053975;28;20637;-67
2023/02/12 11:40:59;;;;;;;2.47;1.37;;;7.80;98.30;;;;;;5052345;28;20664;-67
2023/02/12 11:43:29;;;;;;;2.10;1.87;;;7.50;99.90;;;;;;5051040;28;20761;-67
2023/02/12 11:45:57;;;;;;;7.03;2.93;;;7.70;98.30;;;;;;5049991;28;20641;-67
2023/02/12 11:48:27;;;;;;;2.50;2.30;;;7.70;98.50;;;;;;5049820;28;21070;-67
2023/02/12 11:50:57;;;;;;;2.40;1.93;;;7.80;99.90;;;;;;5050222;28;20664;-68
2023/02/12 11:53:28;;;;;;;3.10;2.90;;;8.00;99.90;;;;;;5035136;28;20734;-67
2023/02/12 11:55:58;;;;;;;5.80;3.37;;;7.90;98.30;;;;;;5030373;28;20650;-67
2023/02/12 11:58:28;;;;;;;4.10;1.90;;;8.20;99.90;;;;;;5039671;28;21168;-67
2023/02/12 12:01:02;;;;;;;2.70;2.37;;;6.70;97.40;;;;;;5050359;28;20657;-67
2023/02/12 12:03:36;;;;;;;5.97;3.00;;;8.00;99.90;;;;;;5050070;28;20663;-67
2023/02/12 12:06:18;;;;;;;2.43;2.23;;;11.10;99.60;;;;;;5045684;28;20658;-68
2023/02/12 12:08:51;;;;;;;2.27;2.00;;;7.90;98.10;;;;;;5040382;28;21076;-67
2023/02/12 12:11:21;;;;;;;2.13;1.90;;;7.40;98.40;;;;;;5050681;28;20654;-67
2023/02/12 12:13:54;;;;;;;3.63;3.33;;;7.70;99.90;;;;;;5050089;28;20626;-67
2023/02/12 12:22:05;;;;;;;4.90;2.60;;;8.00;99.90;;;;;;5029693;28;20639;-67
2023/02/12 12:24:41;;;;;;;2.93;2.07;;;8.00;99.90;;;;;;5029798;28;20666;-68
2023/02/12 12:28:01;;;;;;;3.97;2.77;;;8.10;99.90;;;;;;5029895;28;20658;-67
2023/02/12 12:30:20;;;;;;;1.77;1.67;;;8.20;99.90;;;;;;5028814;28;21060;-68
2023/02/12 12:32:49;;;;;;;3.73;3.37;;;8.10;98.00;;;;;;5043454;28;20629;-67
2023/02/12 12:35:21;;;;;;;4.63;3.07;;;8.10;98.10;;;;;;5049197;28;20928;-68
2023/02/12 12:37:54;;;;;;;2.90;2.10;;;8.20;98.10;;;;;;5043346;28;20631;-66
2023/02/12 12:40:37;;;;;;;1.93;1.20;;;8.30;98.00;;;;;;5052953;28;20865;-67
2023/02/12 12:43:21;;;;;;;2.37;1.80;;;8.30;98.00;;;;;;5066878;28;20621;-67
2023/02/12 12:46:22;;;;;;;9.47;1.30;;;7.70;97.70;;;;;;5048917;28;20646;-67
2023/02/12 12:49:19;;;;;;;2.43;2.23;;;8.40;98.00;;;;;;5048745;28;20696;-68
2023/02/12 12:52:09;;;;;;;5.07;1.70;;;8.40;99.90;;;;;;5046247;28;20979;-67
2023/02/12 12:55:03;;;;;;;3.20;2.90;;;8.30;99.90;;;;;;5046940;28;20634;-67
2023/02/12 12:57:46;;;;;;;2.40;2.00;;;8.50;97.80;;;;;;5026807;28;20635;-68
2023/02/12 13:00:25;;;;;;;2.73;2.43;;;8.50;97.90;;;;;;5048235;28;20618;-67
2023/02/12 13:03:28;;;;;;;2.53;1.80;;;8.50;97.80;;;;;;5048402;28;20648;-68
2023/02/12 13:06:30;;;;;;;6.50;2.13;;;8.40;97.60;;;;;;5048695;28;20654;-67
2023/02/12 13:09:11;;;;;;;1.53;1.30;;;8.40;97.70;;;;;;5025714;28;20654;-68
2023/02/12 13:11:50;;;;;;;5.10;2.37;;;8.50;97.80;;;;;;5028643;28;20655;-67
2023/02/12 13:14:30;;;;;;;2.70;1.63;;;8.50;97.50;;;;;;5029052;28;21026;-67
2023/02/12 13:17:04;;;;;;;2.37;2.07;;;8.40;97.70;;;;;;5029106;28;20719;-68
2023/02/12 13:19:43;;;;;;;1.50;1.40;;;8.40;97.80;;;;;;5044499;28;20637;-68
2023/02/12 13:22:18;;;;;;;4.07;2.10;;;8.40;97.90;;;;;;5048360;28;20657;-68
2023/02/12 13:24:51;;;;;;;8.77;2.93;;;8.50;97.80;;;;;;5048406;28;20653;-67
2023/02/12 13:27:21;;;;;;;3.30;2.87;;;8.50;97.50;;;;;;5048660;28;20646;-67